Terminal Aerodrome Forecast
Issued by NWS Mt. Holly, NJ

Home | Current Version | Previous Version | Text Only | Print | Product List | Glossary On
Versions: 1 2 3 4 5 6 7 8 9 10 11 12 13 14 15 16 17 18 19 20 21 22
000
FTUS41 KPHI 202300
TAFPHL
TAF
KPHL 202329Z 2100/2206 28012KT P6SM SKC
     FM211400 29014G24KT P6SM FEW050
     FM212100 29010KT P6SM SKC
     FM220300 29004KT P6SM SKC=

USA.gov is the U.S. government's official web portal to all federal, state and local government web resources and services.